Time;durP1;ratioP1;P1;durP2;ratioP2;P2;SDS_P1;SDS_P2;PMS_P1;PMS_P2;Temp;Humidity;BMP_temperature;BMP_pressure;BME280_temperature;BME280_humidity;BME280_pressure;Samples;Min_cycle;Max_cycle;Signal;HPM_P1;HPM_P2
2020/12/05 06:01:45;;;;;;;1999.90;999.90;;;7.80;99.90;;;;;;5330404;23;20709;-78
2020/12/05 06:04:21;;;;;;;1999.90;999.90;;;7.20;99.90;;;;;;4948723;29;20209;-75
2020/12/05 06:06:51;;;;;;;1999.90;999.90;;;7.20;99.90;;;;;;4955599;29;20638;-76
2020/12/05 06:09:23;;;;;;;1999.90;999.90;;;7.30;99.90;;;;;;4955922;29;20264;-75
2020/12/05 06:11:53;;;;;;;1999.90;999.90;;;7.40;99.90;;;;;;4955984;28;20293;-76
2020/12/05 06:14:23;;;;;;;1999.90;999.90;;;7.30;99.90;;;;;;4955593;29;20561;-75
2020/12/05 06:16:54;;;;;;;1999.90;999.90;;;7.40;99.90;;;;;;4952878;29;20210;-79
2020/12/05 06:19:21;;;;;;;1999.90;999.90;;;7.40;99.90;;;;;;4943166;29;20256;-81
2020/12/05 06:21:50;;;;;;;1999.90;999.90;;;7.40;99.90;;;;;;4958303;28;20248;-78
2020/12/05 06:24:29;;;;;;;1999.90;999.90;;;7.40;99.90;;;;;;4958292;28;20276;-77
2020/12/05 06:27:02;;;;;;;1999.90;999.90;;;7.50;99.90;;;;;;4958239;28;20698;-79
2020/12/05 06:29:32;;;;;;;1999.90;999.90;;;7.50;99.90;;;;;;4957952;28;20213;-78
2020/12/05 06:31:59;;;;;;;1999.90;999.90;;;7.50;99.90;;;;;;4957812;28;20300;-78
2020/12/05 06:34:34;;;;;;;1999.90;999.90;;;7.50;99.90;;;;;;4957087;29;20205;-77
2020/12/05 06:37:02;;;;;;;1999.90;999.90;;;7.50;99.90;;;;;;4957743;29;20760;-79
2020/12/05 06:39:29;;;;;;;1999.90;999.90;;;7.40;99.90;;;;;;4959375;29;20204;-79
2020/12/05 06:41:56;;;;;;;1999.90;999.90;;;7.50;99.90;;;;;;4958858;28;20226;-79
2020/12/05 06:44:25;;;;;;;1999.90;999.90;;;7.50;99.90;;;;;;4959199;29;20547;-80
2020/12/05 06:46:55;;;;;;;1999.90;999.90;;;7.50;99.90;;;;;;4958748;29;20232;-79
2020/12/05 06:52:40;;;;;;;1999.90;999.90;;;7.50;99.90;;;;;;5112652;27;20565;-80
2020/12/05 06:55:16;;;;;;;1999.90;999.90;;;7.60;99.90;;;;;;5113486;28;20228;-79
2020/12/05 06:57:44;;;;;;;1999.90;999.90;;;7.60;99.90;;;;;;5108343;28;20253;-80
2020/12/05 07:00:23;;;;;;;1999.90;999.90;;;7.60;99.90;;;;;;5112599;28;20246;-81
2020/12/05 07:02:58;;;;;;;1999.90;999.90;;;7.70;99.90;;;;;;5112025;28;20207;-78
2020/12/05 07:05:27;;;;;;;1999.90;999.90;;;7.70;99.90;;;;;;5104983;28;20207;-79
2020/12/05 07:07:56;;;;;;;1999.90;999.90;;;7.80;99.90;;;;;;5091922;28;20284;-78
2020/12/05 07:10:48;;;;;;;1999.90;999.90;;;7.80;99.90;;;;;;5090928;28;20277;-77
2020/12/05 07:13:18;;;;;;;1999.90;999.90;;;7.80;99.90;;;;;;5089403;28;20259;-76
2020/12/05 07:15:45;;;;;;;1999.90;999.90;;;7.70;99.90;;;;;;5108857;28;20204;-79
2020/12/05 07:18:24;;;;;;;1999.90;999.90;;;7.80;99.90;;;;;;5116197;28;20207;-81
2020/12/05 07:20:51;;;;;;;1999.90;999.90;;;7.80;99.90;;;;;;5113683;28;20245;-79
2020/12/05 07:23:18;;;;;;;1999.90;999.90;;;7.90;99.90;;;;;;5114995;28;20653;-80
2020/12/05 07:25:44;;;;;;;1999.90;999.90;;;8.00;99.90;;;;;;5114072;28;20724;-79
2020/12/05 07:28:13;;;;;;;1999.90;999.90;;;8.00;99.90;;;;;;5114583;28;20199;-81
2020/12/05 07:30:40;;;;;;;1999.90;999.90;;;8.00;99.90;;;;;;5111490;28;20213;-83
2020/12/05 07:33:08;;;;;;;1999.90;999.90;;;8.10;99.90;;;;;;5106738;28;20227;-84
2020/12/05 07:35:38;;;;;;;1999.90;999.90;;;8.10;99.90;;;;;;5101018;28;20209;-76
2020/12/05 07:38:15;;;;;;;1999.90;999.90;;;8.10;99.90;;;;;;5106847;28;20429;-78
2020/12/05 07:40:43;;;;;;;1999.90;999.90;;;8.10;99.90;;;;;;5101278;28;20219;-80
2020/12/05 07:43:18;;;;;;;1999.90;999.90;;;8.20;99.90;;;;;;5090788;28;20254;-79
2020/12/05 07:45:46;;;;;;;1999.90;999.90;;;8.30;99.90;;;;;;5103720;28;20200;-78
2020/12/05 07:48:15;;;;;;;1999.90;999.90;;;8.20;99.90;;;;;;5100707;28;20270;-78
2020/12/05 07:50:43;;;;;;;1999.90;999.90;;;8.20;99.90;;;;;;5101420;28;20761;-78
2020/12/05 07:53:23;;;;;;;1999.90;999.90;;;8.30;99.90;;;;;;5103485;28;20258;-76
2020/12/05 07:55:50;;;;;;;1999.90;999.90;;;8.50;99.90;;;;;;5088980;28;20205;-78
2020/12/05 07:58:18;;;;;;;1999.90;999.90;;;8.60;99.90;;;;;;5089492;28;20274;-78
2020/12/05 08:00:45;;;;;;;1999.90;999.90;;;8.70;99.90;;;;;;5090460;28;20769;-77
2020/12/05 08:03:50;;;;;;;1999.90;999.90;;;8.80;99.90;;;;;;5076519;28;20682;-78
2020/12/05 08:06:25;;;;;;;1999.90;999.90;;;8.90;99.90;;;;;;5077234;28;20201;-76
2020/12/05 08:09:02;;;;;;;1999.90;999.90;;;9.00;99.90;;;;;;5077362;28;20212;-80
2020/12/05 08:11:38;;;;;;;1999.90;999.90;;;9.00;99.90;;;;;;5075957;28;20256;-79
2020/12/05 08:14:07;;;;;;;1999.90;999.90;;;9.20;99.90;;;;;;5075803;28;20208;-78
2020/12/05 08:16:37;;;;;;;1999.90;999.90;;;9.30;99.90;;;;;;5074874;28;20204;-77
2020/12/05 08:19:04;;;;;;;1999.90;999.90;;;9.50;99.90;;;;;;5076230;28;20209;-75
2020/12/05 08:21:31;;;;;;;1999.90;999.90;;;9.50;99.90;;;;;;5076000;28;20247;-77
2020/12/05 08:24:09;;;;;;;1999.90;999.90;;;9.40;99.90;;;;;;5077215;28;20205;-76
2020/12/05 08:26:37;;;;;;;1999.90;999.90;;;9.30;99.90;;;;;;5074109;28;20208;-76
2020/12/05 08:29:08;;;;;;;1999.90;999.90;;;9.20;99.90;;;;;;5079008;28;20193;-76
2020/12/05 08:31:41;;;;;;;1999.90;999.90;;;9.20;99.90;;;;;;5085225;28;20217;-80
2020/12/05 08:34:08;;;;;;;1999.90;999.90;;;9.20;99.90;;;;;;5078219;28;20711;-79
2020/12/05 08:36:37;;;;;;;1999.90;999.90;;;9.20;99.90;;;;;;5077074;28;20197;-76
2020/12/05 08:39:05;;;;;;;1999.90;999.90;;;9.20;99.90;;;;;;5074269;28;20197;-76
2020/12/05 08:41:46;;;;;;;1999.90;999.90;;;9.20;99.90;;;;;;5074637;28;20526;-76
2020/12/05 08:44:16;;;;;;;1999.90;999.90;;;9.30;99.90;;;;;;5074740;28;20201;-76
2020/12/05 08:46:43;;;;;;;1999.90;999.90;;;9.30;99.90;;;;;;5074030;28;20205;-75
2020/12/05 08:49:15;;;;;;;1999.90;999.90;;;9.30;99.90;;;;;;5077035;28;20658;-78
2020/12/05 08:51:46;;;;;;;1999.90;999.90;;;9.30;99.90;;;;;;5080106;28;20224;-78
2020/12/05 08:54:13;;;;;;;1999.90;999.90;;;9.30;99.90;;;;;;5085704;28;20243;-79
2020/12/05 08:56:42;;;;;;;1999.90;999.90;;;9.20;99.90;;;;;;5089612;28;20208;-78
2020/12/05 08:59:11;;;;;;;1999.90;999.90;;;9.10;99.90;;;;;;5087669;28;20578;-78
2020/12/05 09:01:47;;;;;;;1999.90;999.90;;;9.20;99.90;;;;;;5078785;28;20232;-76
2020/12/05 09:04:26;;;;;;;1999.90;999.90;;;9.30;99.90;;;;;;5075022;28;20623;-77
2020/12/05 09:07:07;;;;;;;1999.90;999.90;;;9.30;99.90;;;;;;5075139;28;20592;-76
2020/12/05 09:09:34;;;;;;;1999.90;999.90;;;9.20;99.90;;;;;;5074425;28;20669;-76
2020/12/05 09:12:03;;;;;;;1999.90;999.90;;;9.40;99.90;;;;;;5075510;28;20225;-76
2020/12/05 09:14:30;;;;;;;1999.90;999.90;;;9.40;99.90;;;;;;5073968;28;20202;-76
2020/12/05 09:16:58;;;;;;;1999.90;999.90;;;9.40;99.90;;;;;;5075191;28;20243;-77
2020/12/05 09:19:27;;;;;;;1999.90;999.90;;;9.40;99.90;;;;;;5095238;28;20223;-77
2020/12/05 09:21:55;;;;;;;1999.90;999.90;;;9.40;99.90;;;;;;5094332;28;20221;-77
2020/12/05 09:24:22;;;;;;;1999.90;999.90;;;9.50;99.90;;;;;;5091276;28;20206;-77
2020/12/05 09:26:56;;;;;;;1999.90;999.90;;;9.60;99.90;;;;;;5085792;28;20196;-76
2020/12/05 09:29:23;;;;;;;1999.90;999.90;;;9.70;99.90;;;;;;5094564;28;20204;-76
2020/12/05 09:31:51;;;;;;;1999.90;999.90;;;9.60;99.90;;;;;;5094744;28;20311;-76
2020/12/05 09:34:32;;;;;;;1999.90;999.90;;;9.50;99.90;;;;;;5092913;28;20210;-74
2020/12/05 09:36:59;;;;;;;1999.90;999.90;;;9.50;99.90;;;;;;5093681;28;20208;-76
2020/12/05 09:39:26;;;;;;;1999.90;999.90;;;9.50;99.90;;;;;;5078063;28;20217;-76
2020/12/05 09:41:52;;;;;;;1999.90;999.90;;;9.50;99.90;;;;;;5075710;28;20217;-76
2020/12/05 09:44:19;;;;;;;1999.90;999.90;;;9.50;99.90;;;;;;5080103;28;20200;-76
2020/12/05 09:46:46;;;;;;;1999.90;999.90;;;9.50;99.90;;;;;;5093110;28;20196;-74
2020/12/05 09:49:13;;;;;;;1999.90;999.90;;;9.40;99.90;;;;;;5093336;28;20208;-75
2020/12/05 09:51:41;;;;;;;1999.90;999.90;;;9.40;99.90;;;;;;5092739;28;20307;-76
2020/12/05 09:54:08;;;;;;;1999.90;999.90;;;9.40;99.90;;;;;;5093561;28;20220;-76
2020/12/05 09:56:34;;;;;;;1999.90;999.90;;;9.50;99.90;;;;;;5092671;28;20722;-75
2020/12/05 09:59:01;;;;;;;1999.90;999.90;;;9.40;99.90;;;;;;5089748;28;20564;-76
2020/12/05 10:01:31;;;;;;;1999.90;999.90;;;9.60;99.90;;;;;;5081896;28;20669;-76
2020/12/05 10:03:58;;;;;;;1999.90;999.90;;;9.70;99.90;;;;;;5082219;28;20193;-76
2020/12/05 10:06:26;;;;;;;1999.90;999.90;;;9.80;99.90;;;;;;5083274;28;20253;-74
2020/12/05 10:08:54;;;;;;;1999.90;999.90;;;9.80;99.90;;;;;;5081815;28;20198;-76
2020/12/05 10:11:21;;;;;;;1999.90;999.90;;;9.90;99.90;;;;;;5094492;28;20285;-75
2020/12/05 10:13:48;;;;;;;1999.90;999.90;;;9.90;99.90;;;;;;5092613;28;20205;-76
2020/12/05 10:16:14;;;;;;;1999.90;999.90;;;9.80;99.90;;;;;;5092740;28;20236;-76
2020/12/05 10:18:41;;;;;;;1999.90;999.90;;;9.80;99.90;;;;;;5092819;28;20201;-76
2020/12/05 10:21:08;;;;;;;1999.90;999.90;;;9.80;99.90;;;;;;5092372;28;20221;-76
2020/12/05 10:23:35;;;;;;;1999.90;999.90;;;9.80;99.90;;;;;;5092844;28;20200;-76
2020/12/05 10:26:03;;;;;;;1999.90;999.90;;;9.80;99.90;;;;;;5092309;28;20265;-75
2020/12/05 10:28:30;;;;;;;1999.90;999.90;;;9.80;99.90;;;;;;5096892;28;20200;-75
2020/12/05 10:30:57;;;;;;;1999.90;999.90;;;9.80;99.90;;;;;;5098592;28;20220;-77
2020/12/05 10:33:24;;;;;;;1999.90;999.90;;;9.80;99.90;;;;;;5101890;28;20229;-75
2020/12/05 10:35:51;;;;;;;1999.90;999.90;;;10.00;99.90;;;;;;5094490;28;20200;-76
2020/12/05 10:38:18;;;;;;;1999.90;999.90;;;10.10;99.90;;;;;;5093939;28;20200;-74
2020/12/05 10:40:44;;;;;;;1999.90;999.90;;;10.20;99.90;;;;;;5093922;28;20274;-78
2020/12/05 10:43:12;;;;;;;1999.90;999.90;;;10.30;99.90;;;;;;5094104;28;20197;-77
2020/12/05 10:45:39;;;;;;;1999.90;999.90;;;10.30;99.90;;;;;;5092265;28;20200;-77
2020/12/05 10:48:06;;;;;;;1999.90;999.90;;;10.40;99.90;;;;;;5088625;28;20304;-76
2020/12/05 10:50:32;;;;;;;1999.90;999.90;;;10.50;99.90;;;;;;5081077;28;20766;-75
2020/12/05 10:52:59;;;;;;;1999.90;999.90;;;10.60;99.90;;;;;;5093047;28;20220;-78
2020/12/05 10:55:26;;;;;;;1999.90;999.90;;;10.50;99.90;;;;;;5093490;28;20249;-77
2020/12/05 10:58:04;;;;;;;1999.90;999.90;;;10.60;99.90;;;;;;5093376;28;20220;-78
2020/12/05 11:00:31;;;;;;;1999.90;999.90;;;10.60;99.90;;;;;;5092804;28;20196;-77
2020/12/05 11:02:59;;;;;;;1999.90;999.90;;;10.70;99.90;;;;;;5092529;28;20713;-77
2020/12/05 11:05:26;;;;;;;1999.90;999.90;;;10.80;99.90;;;;;;5092036;28;20201;-76
2020/12/05 11:07:53;;;;;;;1999.90;999.90;;;11.00;99.90;;;;;;5092820;28;20193;-77
2020/12/05 11:10:20;;;;;;;1999.90;999.90;;;11.10;99.90;;;;;;5092260;28;20251;-76
2020/12/05 11:12:47;;;;;;;1999.90;999.90;;;11.10;99.90;;;;;;5092525;28;20637;-76
2020/12/05 11:15:14;;;;;;;1999.90;999.90;;;11.10;99.90;;;;;;5093121;28;20208;-77
2020/12/05 11:17:42;;;;;;;1999.90;999.90;;;11.20;99.90;;;;;;5092149;28;20723;-76
2020/12/05 11:20:08;;;;;;;1999.90;999.90;;;11.20;99.90;;;;;;5091990;28;20201;-76
2020/12/05 11:22:35;;;;;;;1999.90;999.90;;;11.20;99.90;;;;;;5091751;28;20217;-76
2020/12/05 11:25:02;;;;;;;1999.90;999.90;;;11.20;99.90;;;;;;5092029;28;20211;-76
2020/12/05 11:27:29;;;;;;;1999.90;999.90;;;11.20;99.90;;;;;;5091394;28;20200;-77
2020/12/05 11:29:56;;;;;;;1999.90;999.90;;;11.20;99.90;;;;;;5092322;28;20200;-78
2020/12/05 11:32:24;;;;;;;1999.90;999.90;;;11.20;99.90;;;;;;5083244;28;20220;-78
2020/12/05 11:34:52;;;;;;;1999.90;999.90;;;11.30;99.90;;;;;;5091426;28;20247;-78
2020/12/05 11:37:19;;;;;;;1999.90;999.90;;;11.50;99.90;;;;;;5092551;28;20220;-79
2020/12/05 11:39:47;;;;;;;1999.90;999.90;;;11.50;99.90;;;;;;5095686;28;20203;-78
2020/12/05 11:42:14;;;;;;;1999.90;999.90;;;11.60;99.90;;;;;;5095720;28;20595;-77
2020/12/05 11:44:41;;;;;;;1999.90;999.90;;;11.50;99.90;;;;;;5075720;28;20201;-78
2020/12/05 11:47:09;;;;;;;1999.90;999.90;;;11.50;99.90;;;;;;5087273;28;20272;-77
2020/12/05 11:49:36;;;;;;;1999.90;999.90;;;11.50;99.90;;;;;;5089220;28;20201;-78
2020/12/05 11:52:04;;;;;;;1999.90;999.90;;;11.60;99.90;;;;;;5082502;28;20677;-78
2020/12/05 11:54:31;;;;;;;1999.90;999.90;;;11.60;99.90;;;;;;5090184;28;20193;-78
2020/12/05 11:56:59;;;;;;;1999.90;999.90;;;11.60;99.90;;;;;;5085450;28;20223;-78
2020/12/05 11:59:26;;;;;;;1999.90;999.90;;;11.40;99.90;;;;;;5085283;28;20194;-78
2020/12/05 12:01:53;;;;;;;1999.90;999.90;;;11.30;99.90;;;;;;5080743;28;20216;-78
2020/12/05 12:04:20;;;;;;;1999.90;999.90;;;11.30;99.90;;;;;;5094249;28;20197;-78
2020/12/05 12:06:49;;;;;;;1999.90;999.90;;;11.30;99.90;;;;;;5081721;28;20564;-78
2020/12/05 12:09:17;;;;;;;1999.90;999.90;;;11.20;99.90;;;;;;5093324;28;20330;-78
2020/12/05 12:11:44;;;;;;;1999.90;999.90;;;11.10;99.90;;;;;;5079325;28;20233;-77
2020/12/05 12:14:11;;;;;;;1999.90;999.90;;;11.10;99.90;;;;;;5079373;28;20223;-77
2020/12/05 12:16:38;;;;;;;1999.90;999.90;;;11.00;99.90;;;;;;5078450;28;20203;-77
2020/12/05 12:19:05;;;;;;;1999.90;999.90;;;10.90;99.90;;;;;;5085892;28;20197;-77
2020/12/05 12:21:32;;;;;;;1999.90;999.90;;;10.90;99.90;;;;;;5091858;28;20213;-77
2020/12/05 12:23:59;;;;;;;1999.90;999.90;;;10.80;99.90;;;;;;5084696;28;20197;-78
2020/12/05 12:26:30;;;;;;;1999.90;999.90;;;10.80;99.90;;;;;;5077746;28;20212;-76
2020/12/05 12:28:57;;;;;;;1999.90;999.90;;;10.70;99.90;;;;;;5082828;28;20549;-77
2020/12/05 12:31:24;;;;;;;1999.90;999.90;;;10.70;99.90;;;;;;5084763;28;20640;-76
2020/12/05 12:33:52;;;;;;;1999.90;999.90;;;10.70;99.90;;;;;;5089886;28;20207;-78
2020/12/05 12:36:19;;;;;;;1999.90;999.90;;;10.70;99.90;;;;;;5085995;28;20246;-77
2020/12/05 12:38:47;;;;;;;1999.90;999.90;;;10.60;99.90;;;;;;5086456;28;20239;-77
2020/12/05 12:41:15;;;;;;;1999.90;999.90;;;10.60;99.90;;;;;;5084888;28;20283;-77
2020/12/05 12:43:42;;;;;;;1999.90;999.90;;;10.70;99.90;;;;;;5087208;28;20538;-78
2020/12/05 12:46:10;;;;;;;1999.90;999.90;;;10.60;99.90;;;;;;5087374;28;20205;-77
2020/12/05 12:48:38;;;;;;;1999.90;999.90;;;10.70;99.90;;;;;;5087553;28;20270;-77
2020/12/05 12:51:06;;;;;;;1999.90;999.90;;;10.90;99.90;;;;;;5087602;28;20228;-78
2020/12/05 12:53:33;;;;;;;1999.90;999.90;;;10.90;99.90;;;;;;5085147;28;20224;-79
2020/12/05 12:56:00;;;;;;;1999.90;999.90;;;11.00;99.90;;;;;;5083229;28;20251;-77
2020/12/05 12:58:34;;;;;;;1999.90;999.90;;;11.00;99.90;;;;;;5082545;28;20711;-77
2020/12/05 13:01:02;;;;;;;1999.90;999.90;;;11.00;99.90;;;;;;5087677;28;20270;-77
2020/12/05 13:03:29;;;;;;;1999.90;999.90;;;11.00;99.90;;;;;;5086092;28;20189;-77
2020/12/05 13:05:56;;;;;;;1999.90;999.90;;;11.00;99.90;;;;;;5085743;28;20200;-77
2020/12/05 13:08:23;;;;;;;1999.90;999.90;;;10.90;99.90;;;;;;5085805;28;20196;-76
2020/12/05 13:10:50;;;;;;;1999.90;999.90;;;10.80;99.90;;;;;;5093741;28;20256;-76
2020/12/05 13:13:17;;;;;;;1999.90;999.90;;;10.80;99.90;;;;;;5093512;28;20639;-77
2020/12/05 13:15:44;;;;;;;1999.90;999.90;;;10.80;99.90;;;;;;5093475;28;20669;-76
2020/12/05 13:18:12;;;;;;;1999.90;999.90;;;10.70;99.90;;;;;;5093171;28;20653;-76
2020/12/05 13:20:39;;;;;;;1999.90;999.90;;;10.60;99.90;;;;;;5094115;28;20645;-76
2020/12/05 13:23:06;;;;;;;1999.90;999.90;;;10.50;99.90;;;;;;5093354;28;20693;-76
2020/12/05 13:25:36;;;;;;;1999.90;999.90;;;10.50;99.90;;;;;;5079044;28;20194;-77
2020/12/05 13:28:03;;;;;;;1999.90;999.90;;;10.50;99.90;;;;;;5072808;28;20604;-77
2020/12/05 13:30:29;;;;;;;1999.90;999.90;;;10.50;99.90;;;;;;5080785;28;20197;-75
2020/12/05 13:32:56;;;;;;;1999.90;999.90;;;10.40;99.90;;;;;;5085798;28;20622;-77
2020/12/05 13:35:24;;;;;;;1999.90;999.90;;;10.50;99.90;;;;;;5090007;28;20197;-77
2020/12/05 13:37:51;;;;;;;1999.90;999.90;;;10.60;99.90;;;;;;5091546;28;20269;-77
2020/12/05 13:40:18;;;;;;;1999.90;999.90;;;10.80;99.90;;;;;;5091407;28;20250;-76
2020/12/05 13:42:44;;;;;;;1999.90;999.90;;;10.90;99.90;;;;;;5083984;28;20582;-77
2020/12/05 13:45:11;;;;;;;1999.90;999.90;;;11.00;99.90;;;;;;5092910;28;20204;-77
2020/12/05 13:47:38;;;;;;;1999.90;999.90;;;11.00;99.90;;;;;;5093093;28;20208;-74
2020/12/05 13:50:05;;;;;;;1999.90;999.90;;;11.10;99.90;;;;;;5092973;28;20618;-76
2020/12/05 13:52:33;;;;;;;1999.90;999.90;;;11.00;99.90;;;;;;5089521;28;20604;-76
2020/12/05 13:55:00;;;;;;;1999.90;999.90;;;11.10;99.90;;;;;;5072907;28;20208;-76
2020/12/05 13:57:27;;;;;;;1999.90;999.90;;;11.00;99.90;;;;;;5086939;28;20249;-76
2020/12/05 13:59:55;;;;;;;1999.90;999.90;;;11.00;99.90;;;;;;5076741;28;20205;-77
2020/12/05 14:02:22;;;;;;;1999.90;999.90;;;11.00;99.90;;;;;;5076972;28;20217;-79
2020/12/05 14:04:49;;;;;;;1999.90;999.90;;;10.90;99.90;;;;;;5091987;28;20197;-76
2020/12/05 14:07:16;;;;;;;1999.90;999.90;;;11.00;99.90;;;;;;5084000;28;20222;-80
2020/12/05 14:09:43;;;;;;;1999.90;999.90;;;10.90;99.90;;;;;;5096248;28;20288;-73
2020/12/05 14:12:10;;;;;;;1999.90;999.90;;;10.80;99.90;;;;;;5088697;28;20242;-80
2020/12/05 14:14:37;;;;;;;1999.90;999.90;;;10.80;99.90;;;;;;5090476;28;20242;-79
2020/12/05 14:17:04;;;;;;;1999.90;999.90;;;10.80;99.90;;;;;;5088825;28;20189;-79
2020/12/05 14:19:31;;;;;;;1999.90;999.90;;;10.80;99.90;;;;;;5093173;28;20253;-80
2020/12/05 14:22:02;;;;;;;1999.90;999.90;;;10.80;99.90;;;;;;5089555;28;20216;-78
2020/12/05 14:24:32;;;;;;;1999.90;999.90;;;10.80;99.90;;;;;;5089742;28;20193;-78
2020/12/05 14:27:00;;;;;;;1999.90;999.90;;;10.90;99.90;;;;;;5087034;28;20212;-78
2020/12/05 14:29:27;;;;;;;1999.90;999.90;;;10.80;99.90;;;;;;5086785;28;20207;-77
2020/12/05 14:31:55;;;;;;;1999.90;999.90;;;10.80;99.90;;;;;;5087113;28;20685;-76
2020/12/05 14:34:24;;;;;;;1999.90;999.90;;;10.70;99.90;;;;;;5084814;28;20258;-78
2020/12/05 14:36:51;;;;;;;1999.90;999.90;;;10.70;99.90;;;;;;5084162;28;20727;-77
2020/12/05 14:39:18;;;;;;;1999.90;999.90;;;10.50;99.90;;;;;;5081411;28;20734;-74
2020/12/05 14:41:46;;;;;;;1999.90;999.90;;;10.40;99.90;;;;;;5072585;28;20217;-74
2020/12/05 14:44:15;;;;;;;1999.90;999.90;;;10.40;99.90;;;;;;5072065;28;20292;-78
2020/12/05 14:46:42;;;;;;;1999.90;999.90;;;10.40;99.90;;;;;;5074587;28;20192;-77
2020/12/05 14:49:11;;;;;;;1999.90;999.90;;;10.30;99.90;;;;;;5071917;28;20201;-78
2020/12/05 14:51:40;;;;;;;1999.90;999.90;;;10.30;99.90;;;;;;5071394;28;20283;-76
2020/12/05 14:54:07;;;;;;;1999.90;999.90;;;10.20;99.90;;;;;;5071836;28;20619;-78
2020/12/05 14:56:34;;;;;;;1999.90;999.90;;;10.10;99.90;;;;;;5074074;28;20660;-77
2020/12/05 14:59:01;;;;;;;1999.90;999.90;;;10.00;99.90;;;;;;5071534;28;20212;-77
2020/12/05 15:01:29;;;;;;;1999.90;999.90;;;10.00;99.90;;;;;;5071669;28;20571;-76
2020/12/05 15:03:56;;;;;;;1999.90;999.90;;;9.90;99.90;;;;;;5071862;28;20247;-77
2020/12/05 15:06:23;;;;;;;1999.90;999.90;;;9.90;99.90;;;;;;5071455;28;20603;-76
2020/12/05 15:08:50;;;;;;;1999.90;999.90;;;9.90;99.90;;;;;;5071619;28;20608;-75
2020/12/05 15:11:17;;;;;;;1999.90;999.90;;;9.80;99.90;;;;;;5071973;28;20262;-76
2020/12/05 15:13:44;;;;;;;1999.90;999.90;;;9.90;99.90;;;;;;5074712;28;20228;-76
2020/12/05 15:16:11;;;;;;;1999.90;999.90;;;9.80;99.90;;;;;;5075412;28;20231;-76
2020/12/05 15:18:38;;;;;;;1999.90;999.90;;;9.70;99.90;;;;;;5075919;28;20201;-78
2020/12/05 15:21:05;;;;;;;1999.90;999.90;;;9.60;99.90;;;;;;5080618;28;20212;-76
2020/12/05 15:23:32;;;;;;;1999.90;999.90;;;9.50;99.90;;;;;;5081033;28;20237;-76
2020/12/05 15:25:59;;;;;;;1999.90;999.90;;;9.60;99.90;;;;;;5084614;28;20662;-76
2020/12/05 15:28:26;;;;;;;1999.90;999.90;;;9.60;99.90;;;;;;5084175;28;20805;-77
2020/12/05 15:30:53;;;;;;;1999.90;999.90;;;9.70;99.90;;;;;;5083535;28;20266;-77
2020/12/05 15:33:20;;;;;;;1999.90;999.90;;;9.70;99.90;;;;;;5088111;28;20701;-77
2020/12/05 15:35:49;;;;;;;1999.90;999.90;;;9.70;99.90;;;;;;5083281;28;20650;-76
2020/12/05 15:38:16;;;;;;;1999.90;999.90;;;9.70;99.90;;;;;;5074278;28;20197;-76
2020/12/05 15:40:43;;;;;;;1999.90;999.90;;;9.80;99.90;;;;;;5075562;28;20221;-76
2020/12/05 15:43:09;;;;;;;1999.90;999.90;;;9.70;99.90;;;;;;5076257;28;20666;-76
2020/12/05 15:45:36;;;;;;;1999.90;999.90;;;9.70;99.90;;;;;;5075515;28;20189;-77
2020/12/05 15:48:03;;;;;;;1999.90;999.90;;;9.70;99.90;;;;;;5074615;28;20197;-75
2020/12/05 15:50:30;;;;;;;1999.90;999.90;;;9.70;99.90;;;;;;5075042;28;20206;-76
2020/12/05 15:52:58;;;;;;;1999.90;999.90;;;9.70;99.90;;;;;;5075136;28;20759;-75
2020/12/05 15:55:24;;;;;;;1999.90;999.90;;;9.70;99.90;;;;;;5075256;28;20658;-75
2020/12/05 15:57:51;;;;;;;1999.90;999.90;;;9.80;99.90;;;;;;5074507;28;20259;-75
2020/12/05 16:00:18;;;;;;;1999.90;999.90;;;9.80;99.90;;;;;;5073165;28;20251;-76
2020/12/05 16:02:45;;;;;;;1999.90;999.90;;;9.60;99.90;;;;;;5074044;28;20194;-74
2020/12/05 16:05:12;;;;;;;1999.90;999.90;;;9.50;99.90;;;;;;5079663;28;20209;-76
2020/12/05 16:07:39;;;;;;;1999.90;999.90;;;9.60;99.90;;;;;;5088237;28;20708;-75
2020/12/05 16:10:06;;;;;;;1999.90;999.90;;;9.60;99.90;;;;;;5080780;28;20270;-77
2020/12/05 16:12:33;;;;;;;1999.90;999.90;;;9.60;99.90;;;;;;5087935;28;20208;-77
2020/12/05 16:15:00;;;;;;;1999.90;999.90;;;9.70;99.90;;;;;;5087300;28;20193;-76
2020/12/05 16:17:27;;;;;;;1999.90;999.90;;;9.80;99.90;;;;;;5085964;28;20192;-76
2020/12/05 16:19:54;;;;;;;1999.90;999.90;;;9.80;99.90;;;;;;5074094;28;20743;-76
2020/12/05 16:22:21;;;;;;;1999.90;999.90;;;9.70;99.90;;;;;;5073697;28;20217;-76
2020/12/05 16:24:48;;;;;;;1999.90;999.90;;;9.70;99.90;;;;;;5073319;28;20208;-75
2020/12/05 16:27:16;;;;;;;1999.90;999.90;;;9.80;99.90;;;;;;5073573;28;20269;-76
2020/12/05 16:29:45;;;;;;;1999.90;999.90;;;9.70;99.90;;;;;;5073347;28;20270;-76
2020/12/05 16:32:16;;;;;;;1999.90;999.90;;;9.70;99.90;;;;;;5073806;28;20217;-76
2020/12/05 16:34:44;;;;;;;1999.90;999.90;;;9.50;99.90;;;;;;5073764;28;20197;-75
2020/12/05 16:37:11;;;;;;;1999.90;999.90;;;9.70;99.90;;;;;;5073394;28;20201;-74
2020/12/05 16:39:37;;;;;;;1999.90;999.90;;;9.80;99.90;;;;;;5073973;28;20201;-75
2020/12/05 16:42:04;;;;;;;1999.90;999.90;;;9.80;99.90;;;;;;5073458;28;20221;-76
2020/12/05 16:44:32;;;;;;;1999.90;999.90;;;9.90;99.90;;;;;;5075326;28;20198;-77
2020/12/05 16:46:59;;;;;;;1999.90;999.90;;;9.90;99.90;;;;;;5073404;28;20189;-76
2020/12/05 16:49:26;;;;;;;1999.90;999.90;;;9.90;99.90;;;;;;5074195;28;20198;-77
2020/12/05 16:51:53;;;;;;;1999.90;999.90;;;9.60;99.90;;;;;;5073073;28;20308;-76
2020/12/05 16:54:19;;;;;;;1999.90;999.90;;;9.60;99.90;;;;;;5073201;28;20201;-75
2020/12/05 16:56:47;;;;;;;1999.90;999.90;;;9.70;99.90;;;;;;5083898;28;20250;-77
2020/12/05 16:59:14;;;;;;;1999.90;999.90;;;9.80;99.90;;;;;;5080543;28;20244;-76
2020/12/05 17:01:41;;;;;;;1999.90;999.90;;;9.80;99.90;;;;;;5078209;28;20632;-77
2020/12/05 17:04:08;;;;;;;1999.90;999.90;;;9.80;99.90;;;;;;5083778;28;20242;-75
2020/12/05 17:06:36;;;;;;;1999.90;999.90;;;9.80;99.90;;;;;;5086115;28;20209;-77
2020/12/05 17:09:03;;;;;;;1999.90;999.90;;;9.80;99.90;;;;;;5074916;28;20200;-80
2020/12/05 17:11:29;;;;;;;1999.90;999.90;;;9.70;99.90;;;;;;5076787;28;20221;-78
2020/12/05 17:13:56;;;;;;;1999.90;999.90;;;9.70;99.90;;;;;;5078599;28;20631;-79
2020/12/05 17:16:24;;;;;;;1999.90;999.90;;;9.50;99.90;;;;;;5076120;28;20209;-78
2020/12/05 17:18:52;;;;;;;1999.90;999.90;;;9.50;99.90;;;;;;5074581;28;20251;-77
2020/12/05 17:21:20;;;;;;;1999.90;999.90;;;9.50;99.90;;;;;;5075037;28;20221;-78
2020/12/05 17:23:48;;;;;;;1999.90;999.90;;;9.50;99.90;;;;;;5075331;28;20567;-78
2020/12/05 17:26:16;;;;;;;1999.90;999.90;;;9.40;99.90;;;;;;5075929;28;20197;-76
2020/12/05 17:28:43;;;;;;;1999.90;999.90;;;9.40;99.90;;;;;;5076202;28;20296;-78
2020/12/05 17:31:12;;;;;;;1999.90;999.90;;;9.30;99.90;;;;;;5080018;28;20225;-78
2020/12/05 17:33:39;;;;;;;1999.90;999.90;;;9.00;99.90;;;;;;5079272;28;20266;-73
2020/12/05 17:36:06;;;;;;;1999.90;999.90;;;8.80;99.90;;;;;;5076998;28;20547;-78
2020/12/05 17:38:34;;;;;;;1999.90;999.90;;;8.90;99.90;;;;;;5092458;28;20223;-78
2020/12/05 17:41:01;;;;;;;1999.90;999.90;;;8.90;99.90;;;;;;5080703;28;20221;-77
2020/12/05 17:43:28;;;;;;;1999.90;999.90;;;9.00;99.90;;;;;;5085826;28;20262;-78
2020/12/05 17:45:56;;;;;;;1999.90;999.90;;;8.70;99.90;;;;;;5095590;28;20197;-78
2020/12/05 17:48:24;;;;;;;1999.90;999.90;;;8.60;99.90;;;;;;5086933;28;20200;-81
2020/12/05 17:50:51;;;;;;;1999.90;999.90;;;8.60;99.90;;;;;;5085692;28;20270;-79
2020/12/05 17:53:18;;;;;;;1999.90;999.90;;;8.50;99.90;;;;;;5090658;28;20626;-79
2020/12/05 17:55:45;;;;;;;1999.90;999.90;;;8.60;99.90;;;;;;5091988;28;20201;-79
2020/12/05 17:58:13;;;;;;;1999.90;999.90;;;8.60;99.90;;;;;;5091937;28;20245;-78
2020/12/05 18:00:39;;;;;;;1999.90;999.90;;;8.60;99.90;;;;;;5089880;28;20213;-78
2020/12/05 18:03:06;;;;;;;1999.90;999.90;;;8.60;99.90;;;;;;5094273;28;20188;-79
2020/12/05 18:05:33;;;;;;;1999.90;999.90;;;8.40;99.90;;;;;;5092316;28;20642;-79
2020/12/05 18:08:00;;;;;;;1999.90;999.90;;;8.40;99.90;;;;;;5088714;28;20661;-78
2020/12/05 18:10:28;;;;;;;1999.90;999.90;;;8.50;99.90;;;;;;5089459;28;20253;-78
2020/12/05 18:12:55;;;;;;;1999.90;999.90;;;8.30;99.90;;;;;;5085783;28;20271;-74
2020/12/05 18:15:22;;;;;;;1999.90;999.90;;;8.40;99.90;;;;;;5072034;28;20334;-74